sensor_id;sensor_type;location;lat;lon;timestamp;pressure;altitude;pressure_sealevel;temperature;humidity
58373;BME280;44177;43.356;27.672;2023-04-28T00:01:17;98270.19;;;5.37;70.65
58373;BME280;44177;43.356;27.672;2023-04-28T00:03:43;98278.97;;;5.43;71.11
58373;BME280;44177;43.356;27.672;2023-04-28T00:06:09;98280.22;;;5.36;71.62
58373;BME280;44177;43.356;27.672;2023-04-28T00:08:35;98292.59;;;5.29;72.07
58373;BME280;44177;43.356;27.672;2023-04-28T00:11:01;98289.31;;;5.18;72.35
58373;BME280;44177;43.356;27.672;2023-04-28T00:13:26;98274.41;;;4.98;73.48
58373;BME280;44177;43.356;27.672;2023-04-28T00:15:52;98289.59;;;5.08;73.27
58373;BME280;44177;43.356;27.672;2023-04-28T00:18:19;98296.84;;;4.98;73.90
58373;BME280;44177;43.356;27.672;2023-04-28T00:20:44;98303.34;;;4.97;73.88
58373;BME280;44177;43.356;27.672;2023-04-28T00:23:10;98301.63;;;5.01;73.83
58373;BME280;44177;43.356;27.672;2023-04-28T00:25:35;98297.34;;;5.00;73.61
58373;BME280;44177;43.356;27.672;2023-04-28T00:28:01;98303.34;;;4.97;73.51
58373;BME280;44177;43.356;27.672;2023-04-28T00:30:29;98304.81;;;5.03;72.71
58373;BME280;44177;43.356;27.672;2023-04-28T00:32:54;98290.94;;;4.96;72.78
58373;BME280;44177;43.356;27.672;2023-04-28T00:35:20;98291.66;;;4.88;73.08
58373;BME280;44177;43.356;27.672;2023-04-28T00:37:46;98289.16;;;4.92;72.92
58373;BME280;44177;43.356;27.672;2023-04-28T00:40:11;98287.06;;;4.88;72.67
58373;BME280;44177;43.356;27.672;2023-04-28T00:42:37;98303.34;;;4.97;71.86
58373;BME280;44177;43.356;27.672;2023-04-28T00:45:03;98292.03;;;4.95;71.20
58373;BME280;44177;43.356;27.672;2023-04-28T00:47:36;98313.44;;;5.05;70.89
58373;BME280;44177;43.356;27.672;2023-04-28T00:50:03;98296.22;;;5.01;70.76
58373;BME280;44177;43.356;27.672;2023-04-28T00:52:30;98299.41;;;5.03;69.94
58373;BME280;44177;43.356;27.672;2023-04-28T00:54:56;98295.84;;;4.94;69.93
58373;BME280;44177;43.356;27.672;2023-04-28T00:57:22;98308.69;;;4.88;70.42
58373;BME280;44177;43.356;27.672;2023-04-28T00:59:47;98300.50;;;4.80;70.70
58373;BME280;44177;43.356;27.672;2023-04-28T01:02:13;98307.88;;;4.88;70.11
58373;BME280;44177;43.356;27.672;2023-04-28T01:04:43;98312.50;;;4.87;70.75
58373;BME280;44177;43.356;27.672;2023-04-28T01:07:09;98312.50;;;4.87;71.11
58373;BME280;44177;43.356;27.672;2023-04-28T01:09:35;98308.72;;;4.74;70.62
58373;BME280;44177;43.356;27.672;2023-04-28T01:12:01;98300.13;;;4.72;71.04
58373;BME280;44177;43.356;27.672;2023-04-28T01:14:26;98294.72;;;4.72;71.13
58373;BME280;44177;43.356;27.672;2023-04-28T01:16:52;98304.13;;;4.75;71.65
58373;BME280;44177;43.356;27.672;2023-04-28T01:19:22;98315.84;;;4.70;71.77
58373;BME280;44177;43.356;27.672;2023-04-28T01:21:51;98303.94;;;4.71;71.38
58373;BME280;44177;43.356;27.672;2023-04-28T01:24:17;98290.03;;;4.64;71.29
58373;BME280;44177;43.356;27.672;2023-04-28T01:26:42;98289.16;;;4.55;71.26
58373;BME280;44177;43.356;27.672;2023-04-28T01:29:08;98291.13;;;4.63;71.18
58373;BME280;44177;43.356;27.672;2023-04-28T01:31:34;98299.81;;;4.74;71.34
58373;BME280;44177;43.356;27.672;2023-04-28T01:33:59;98304.56;;;4.68;71.80
58373;BME280;44177;43.356;27.672;2023-04-28T01:36:25;98295.44;;;4.64;71.91
58373;BME280;44177;43.356;27.672;2023-04-28T01:38:51;98303.38;;;4.61;72.52
58373;BME280;44177;43.356;27.672;2023-04-28T01:41:17;98298.78;;;4.61;71.94
58373;BME280;44177;43.356;27.672;2023-04-28T01:43:42;98290.16;;;4.59;72.38
58373;BME280;44177;43.356;27.672;2023-04-28T01:46:09;98299.19;;;4.54;72.08
58373;BME280;44177;43.356;27.672;2023-04-28T01:48:34;98296.53;;;4.63;71.47
58373;BME280;44177;43.356;27.672;2023-04-28T01:51:00;98287.09;;;4.52;71.34
58373;BME280;44177;43.356;27.672;2023-04-28T01:53:25;98274.00;;;4.31;72.15
58373;BME280;44177;43.356;27.672;2023-04-28T01:55:51;98297.59;;;4.39;71.87
58373;BME280;44177;43.356;27.672;2023-04-28T01:58:17;98285.31;;;4.33;72.24
58373;BME280;44177;43.356;27.672;2023-04-28T02:00:42;98289.34;;;4.22;72.51
58373;BME280;44177;43.356;27.672;2023-04-28T02:03:08;98272.94;;;4.18;72.32
58373;BME280;44177;43.356;27.672;2023-04-28T02:05:33;98286.59;;;4.36;72.48
58373;BME280;44177;43.356;27.672;2023-04-28T02:07:59;98265.25;;;4.11;72.40
58373;BME280;44177;43.356;27.672;2023-04-28T02:10:24;98283.84;;;4.13;73.10
58373;BME280;44177;43.356;27.672;2023-04-28T02:12:50;98284.66;;;4.14;72.62
58373;BME280;44177;43.356;27.672;2023-04-28T02:15:15;98282.44;;;4.16;71.83
58373;BME280;44177;43.356;27.672;2023-04-28T02:17:41;98293.66;;;4.09;72.02
58373;BME280;44177;43.356;27.672;2023-04-28T02:20:07;98288.25;;;4.09;71.23
58373;BME280;44177;43.356;27.672;2023-04-28T02:22:33;98280.34;;;4.13;71.17
58373;BME280;44177;43.356;27.672;2023-04-28T02:24:58;98279.44;;;4.03;70.85
58373;BME280;44177;43.356;27.672;2023-04-28T02:27:23;98290.84;;;4.00;71.10
58373;BME280;44177;43.356;27.672;2023-04-28T02:29:49;98301.03;;;4.03;71.32
58373;BME280;44177;43.356;27.672;2023-04-28T02:32:14;98297.44;;;3.94;71.86
58373;BME280;44177;43.356;27.672;2023-04-28T02:34:40;98296.47;;;3.90;71.81
58373;BME280;44177;43.356;27.672;2023-04-28T02:37:05;98295.75;;;3.84;72.19
58373;BME280;44177;43.356;27.672;2023-04-28T02:39:31;98299.94;;;3.90;72.13
58373;BME280;44177;43.356;27.672;2023-04-28T02:41:57;98312.16;;;3.88;72.08
58373;BME280;44177;43.356;27.672;2023-04-28T02:44:23;98316.13;;;3.76;71.76
58373;BME280;44177;43.356;27.672;2023-04-28T02:46:48;98317.22;;;3.75;71.97
58373;BME280;44177;43.356;27.672;2023-04-28T02:49:14;98314.81;;;3.74;72.00
58373;BME280;44177;43.356;27.672;2023-04-28T02:51:40;98327.81;;;3.72;71.61
58373;BME280;44177;43.356;27.672;2023-04-28T02:54:06;98319.22;;;3.70;72.04
58373;BME280;44177;43.356;27.672;2023-04-28T02:56:31;98330.59;;;3.67;72.33
58373;BME280;44177;43.356;27.672;2023-04-28T02:58:57;98332.78;;;3.64;72.67
58373;BME280;44177;43.356;27.672;2023-04-28T03:01:23;98327.19;;;3.47;73.34
58373;BME280;44177;43.356;27.672;2023-04-28T03:03:48;98336.31;;;3.32;73.81
58373;BME280;44177;43.356;27.672;2023-04-28T03:06:14;98331.94;;;3.36;73.63
58373;BME280;44177;43.356;27.672;2023-04-28T03:08:39;98333.84;;;3.36;73.74
58373;BME280;44177;43.356;27.672;2023-04-28T03:11:05;98340.00;;;3.22;74.65
58373;BME280;44177;43.356;27.672;2023-04-28T03:13:30;98334.28;;;3.24;74.36
58373;BME280;44177;43.356;27.672;2023-04-28T03:15:56;98350.47;;;3.24;74.31
58373;BME280;44177;43.356;27.672;2023-04-28T03:18:22;98349.59;;;3.28;74.02
58373;BME280;44177;43.356;27.672;2023-04-28T03:20:48;98352.50;;;3.32;73.93
58373;BME280;44177;43.356;27.672;2023-04-28T03:23:14;98361.34;;;3.52;72.95
58373;BME280;44177;43.356;27.672;2023-04-28T03:25:39;98344.25;;;3.42;72.70
58373;BME280;44177;43.356;27.672;2023-04-28T03:28:05;98353.34;;;3.46;71.97
58373;BME280;44177;43.356;27.672;2023-04-28T03:30:31;98353.34;;;3.46;72.48
58373;BME280;44177;43.356;27.672;2023-04-28T03:32:56;98354.16;;;3.47;72.22
58373;BME280;44177;43.356;27.672;2023-04-28T03:35:22;98361.78;;;3.59;71.91
58373;BME280;44177;43.356;27.672;2023-04-28T03:37:47;98364.25;;;3.55;71.97
58373;BME280;44177;43.356;27.672;2023-04-28T03:40:13;98368.97;;;3.63;71.74
58373;BME280;44177;43.356;27.672;2023-04-28T03:42:39;98364.28;;;3.69;71.51
58373;BME280;44177;43.356;27.672;2023-04-28T03:45:04;98371.38;;;3.65;71.34
58373;BME280;44177;43.356;27.672;2023-04-28T03:47:30;98382.41;;;3.83;71.37
58373;BME280;44177;43.356;27.672;2023-04-28T03:49:55;98385.59;;;3.85;70.76
58373;BME280;44177;43.356;27.672;2023-04-28T03:52:23;98387.81;;;3.83;70.92
58373;BME280;44177;43.356;27.672;2023-04-28T03:54:48;98394.38;;;3.76;71.55
58373;BME280;44177;43.356;27.672;2023-04-28T03:57:14;98390.41;;;3.88;71.20
58373;BME280;44177;43.356;27.672;2023-04-28T03:59:40;98397.13;;;3.90;71.25
58373;BME280;44177;43.356;27.672;2023-04-28T04:02:05;98394.63;;;3.94;71.07
58373;BME280;44177;43.356;27.672;2023-04-28T04:04:31;98393.94;;;4.02;70.41
58373;BME280;44177;43.356;27.672;2023-04-28T04:06:56;98401.03;;;4.12;70.23
58373;BME280;44177;43.356;27.672;2023-04-28T04:09:23;98405.16;;;4.23;70.21
58373;BME280;44177;43.356;27.672;2023-04-28T04:11:48;98404.84;;;4.25;69.91
58373;BME280;44177;43.356;27.672;2023-04-28T04:14:13;98413.16;;;4.29;70.19
58373;BME280;44177;43.356;27.672;2023-04-28T04:16:39;98413.84;;;4.34;69.69
58373;BME280;44177;43.356;27.672;2023-04-28T04:19:05;98416.66;;;4.57;69.14
58373;BME280;44177;43.356;27.672;2023-04-28T04:21:30;98412.16;;;4.66;68.49
58373;BME280;44177;43.356;27.672;2023-04-28T04:23:56;98415.63;;;4.81;68.58
58373;BME280;44177;43.356;27.672;2023-04-28T04:26:21;98417.03;;;4.92;68.31
58373;BME280;44177;43.356;27.672;2023-04-28T04:28:47;98427.97;;;5.10;67.84
58373;BME280;44177;43.356;27.672;2023-04-28T04:31:12;98416.19;;;5.05;68.09
58373;BME280;44177;43.356;27.672;2023-04-28T04:33:38;98423.53;;;5.28;67.46
58373;BME280;44177;43.356;27.672;2023-04-28T04:36:04;98423.47;;;5.42;67.15
58373;BME280;44177;43.356;27.672;2023-04-28T04:38:30;98420.94;;;5.45;66.56
58373;BME280;44177;43.356;27.672;2023-04-28T04:40:55;98427.50;;;5.44;66.42
58373;BME280;44177;43.356;27.672;2023-04-28T04:43:21;98426.44;;;5.54;65.92
58373;BME280;44177;43.356;27.672;2023-04-28T04:45:47;98412.59;;;5.56;66.01
58373;BME280;44177;43.356;27.672;2023-04-28T04:48:12;98406.31;;;5.69;66.15
58373;BME280;44177;43.356;27.672;2023-04-28T04:50:39;98425.44;;;5.95;65.57
58373;BME280;44177;43.356;27.672;2023-04-28T04:53:05;98414.81;;;5.99;65.33
58373;BME280;44177;43.356;27.672;2023-04-28T04:55:30;98422.84;;;6.13;65.01
58373;BME280;44177;43.356;27.672;2023-04-28T04:57:56;98418.06;;;6.10;64.44
58373;BME280;44177;43.356;27.672;2023-04-28T05:00:21;98424.31;;;6.19;64.15
58373;BME280;44177;43.356;27.672;2023-04-28T05:02:47;98425.19;;;6.37;63.64
58373;BME280;44177;43.356;27.672;2023-04-28T05:05:12;98430.78;;;6.41;63.37
58373;BME280;44177;43.356;27.672;2023-04-28T05:07:38;98405.91;;;6.39;63.50
58373;BME280;44177;43.356;27.672;2023-04-28T05:10:03;98410.69;;;6.42;61.13
58373;BME280;44177;43.356;27.672;2023-04-28T05:12:30;98403.97;;;6.39;62.20
58373;BME280;44177;43.356;27.672;2023-04-28T05:14:56;98413.31;;;6.64;62.80
58373;BME280;44177;43.356;27.672;2023-04-28T05:17:21;98414.47;;;6.81;62.31
58373;BME280;44177;43.356;27.672;2023-04-28T05:19:47;98416.41;;;6.89;61.62
58373;BME280;44177;43.356;27.672;2023-04-28T05:22:12;98408.28;;;7.07;61.24
58373;BME280;44177;43.356;27.672;2023-04-28T05:24:38;98413.22;;;7.14;61.29
58373;BME280;44177;43.356;27.672;2023-04-28T05:27:03;98409.25;;;7.29;61.38
58373;BME280;44177;43.356;27.672;2023-04-28T05:29:28;98401.25;;;7.41;58.80
58373;BME280;44177;43.356;27.672;2023-04-28T05:31:54;98414.34;;;7.65;58.68
58373;BME280;44177;43.356;27.672;2023-04-28T05:34:19;98415.13;;;7.74;56.96
58373;BME280;44177;43.356;27.672;2023-04-28T05:36:45;98416.50;;;7.98;56.65
58373;BME280;44177;43.356;27.672;2023-04-28T05:39:10;98412.81;;;8.12;56.29
58373;BME280;44177;43.356;27.672;2023-04-28T05:41:36;98418.00;;;8.26;54.44
58373;BME280;44177;43.356;27.672;2023-04-28T05:44:02;98412.38;;;8.40;53.99
58373;BME280;44177;43.356;27.672;2023-04-28T05:46:27;98435.53;;;8.55;54.80
58373;BME280;44177;43.356;27.672;2023-04-28T05:48:53;98424.19;;;8.82;53.23
58373;BME280;44177;43.356;27.672;2023-04-28T05:51:18;98413.97;;;8.79;51.58
58373;BME280;44177;43.356;27.672;2023-04-28T05:53:44;98418.09;;;8.85;51.65
58373;BME280;44177;43.356;27.672;2023-04-28T05:56:15;98424.34;;;9.07;50.97
58373;BME280;44177;43.356;27.672;2023-04-28T05:58:41;98420.66;;;9.33;52.42
58373;BME280;44177;43.356;27.672;2023-04-28T06:01:09;98412.13;;;9.56;50.59
58373;BME280;44177;43.356;27.672;2023-04-28T06:03:35;98417.09;;;9.54;49.10
58373;BME280;44177;43.356;27.672;2023-04-28T06:06:00;98412.72;;;9.61;49.22
58373;BME280;44177;43.356;27.672;2023-04-28T06:08:26;98428.69;;;9.84;48.25
58373;BME280;44177;43.356;27.672;2023-04-28T06:10:51;98425.69;;;10.10;49.84
58373;BME280;44177;43.356;27.672;2023-04-28T06:13:17;98430.59;;;10.17;47.11
58373;BME280;44177;43.356;27.672;2023-04-28T06:15:42;98426.88;;;10.47;49.20
58373;BME280;44177;43.356;27.672;2023-04-28T06:18:08;98433.06;;;10.68;47.54
58373;BME280;44177;43.356;27.672;2023-04-28T06:20:34;98420.19;;;10.81;45.96
58373;BME280;44177;43.356;27.672;2023-04-28T06:23:00;98436.31;;;11.11;45.67
58373;BME280;44177;43.356;27.672;2023-04-28T06:25:25;98425.75;;;11.38;45.11
58373;BME280;44177;43.356;27.672;2023-04-28T06:27:51;98431.69;;;11.68;45.21
58373;BME280;44177;43.356;27.672;2023-04-28T06:30:25;98427.13;;;11.44;44.88
58373;BME280;44177;43.356;27.672;2023-04-28T06:32:51;98428.97;;;11.68;44.03
58373;BME280;44177;43.356;27.672;2023-04-28T06:35:16;98424.88;;;11.91;43.12
58373;BME280;44177;43.356;27.672;2023-04-28T06:37:42;98421.06;;;12.08;42.31
58373;BME280;44177;43.356;27.672;2023-04-28T06:40:09;98426.88;;;12.22;44.09
58373;BME280;44177;43.356;27.672;2023-04-28T06:42:35;98431.06;;;12.48;42.26
58373;BME280;44177;43.356;27.672;2023-04-28T06:45:01;98434.03;;;12.59;41.67
58373;BME280;44177;43.356;27.672;2023-04-28T06:47:26;98428.22;;;12.76;41.51
58373;BME280;44177;43.356;27.672;2023-04-28T06:49:52;98431.50;;;13.02;40.44
58373;BME280;44177;43.356;27.672;2023-04-28T06:52:18;98435.00;;;13.18;41.97
58373;BME280;44177;43.356;27.672;2023-04-28T06:54:45;98422.06;;;13.54;40.43
58373;BME280;44177;43.356;27.672;2023-04-28T06:57:11;98423.72;;;13.59;38.85
58373;BME280;44177;43.356;27.672;2023-04-28T06:59:36;98422.28;;;13.46;38.10
58373;BME280;44177;43.356;27.672;2023-04-28T07:02:02;98427.06;;;13.49;37.26
58373;BME280;44177;43.356;27.672;2023-04-28T07:04:27;98427.06;;;13.88;39.19
58373;BME280;44177;43.356;27.672;2023-04-28T07:06:53;98410.47;;;14.04;38.23
58373;BME280;44177;43.356;27.672;2023-04-28T07:09:18;98425.31;;;13.80;36.60
58373;BME280;44177;43.356;27.672;2023-04-28T07:11:44;98425.16;;;13.92;37.57
58373;BME280;44177;43.356;27.672;2023-04-28T07:14:09;98421.13;;;13.66;38.24
58373;BME280;44177;43.356;27.672;2023-04-28T07:16:35;98429.78;;;13.88;37.81
58373;BME280;44177;43.356;27.672;2023-04-28T07:19:01;98419.09;;;14.26;36.10
58373;BME280;44177;43.356;27.672;2023-04-28T07:21:26;98426.66;;;14.56;36.55
58373;BME280;44177;43.356;27.672;2023-04-28T07:23:52;98417.66;;;14.82;35.63
58373;BME280;44177;43.356;27.672;2023-04-28T07:26:21;98420.97;;;14.68;35.04
58373;BME280;44177;43.356;27.672;2023-04-28T07:28:47;98424.50;;;14.68;34.33
58373;BME280;44177;43.356;27.672;2023-04-28T07:31:12;98423.31;;;14.93;33.82
58373;BME280;44177;43.356;27.672;2023-04-28T07:33:38;98409.06;;;14.83;35.07
58373;BME280;44177;43.356;27.672;2023-04-28T07:36:04;98415.84;;;15.20;35.33
58373;BME280;44177;43.356;27.672;2023-04-28T07:38:30;98416.25;;;15.53;34.29
58373;BME280;44177;43.356;27.672;2023-04-28T07:40:55;98410.22;;;15.74;33.60
58373;BME280;44177;43.356;27.672;2023-04-28T07:43:21;98405.44;;;15.06;33.44
58373;BME280;44177;43.356;27.672;2023-04-28T07:45:46;98421.22;;;15.43;33.62
58373;BME280;44177;43.356;27.672;2023-04-28T07:48:14;98418.84;;;15.72;33.24
58373;BME280;44177;43.356;27.672;2023-04-28T07:50:39;98424.47;;;15.19;33.24
58373;BME280;44177;43.356;27.672;2023-04-28T07:53:05;98409.34;;;15.05;33.34
58373;BME280;44177;43.356;27.672;2023-04-28T07:55:30;98422.81;;;15.44;33.27
58373;BME280;44177;43.356;27.672;2023-04-28T07:57:56;98426.16;;;15.91;32.49
58373;BME280;44177;43.356;27.672;2023-04-28T08:00:23;98400.53;;;15.50;31.65
58373;BME280;44177;43.356;27.672;2023-04-28T08:02:48;98417.38;;;15.82;31.73
58373;BME280;44177;43.356;27.672;2023-04-28T08:05:15;98419.09;;;15.94;32.68
58373;BME280;44177;43.356;27.672;2023-04-28T08:07:41;98399.03;;;15.90;31.57
58373;BME280;44177;43.356;27.672;2023-04-28T08:10:09;98414.03;;;16.37;32.69
58373;BME280;44177;43.356;27.672;2023-04-28T08:12:35;98406.69;;;16.56;31.57
58373;BME280;44177;43.356;27.672;2023-04-28T08:15:00;98418.63;;;16.74;31.55
58373;BME280;44177;43.356;27.672;2023-04-28T08:17:26;98398.00;;;17.06;30.71
58373;BME280;44177;43.356;27.672;2023-04-28T08:19:51;98398.09;;;16.16;30.32
58373;BME280;44177;43.356;27.672;2023-04-28T08:22:17;98407.38;;;16.46;32.38
58373;BME280;44177;43.356;27.672;2023-04-28T08:24:42;98396.56;;;16.71;30.93
58373;BME280;44177;43.356;27.672;2023-04-28T08:27:08;98385.28;;;16.90;30.22
58373;BME280;44177;43.356;27.672;2023-04-28T08:29:33;98396.38;;;17.01;30.89
58373;BME280;44177;43.356;27.672;2023-04-28T08:31:59;98394.28;;;16.80;29.76
58373;BME280;44177;43.356;27.672;2023-04-28T08:34:26;98386.97;;;17.10;29.31
58373;BME280;44177;43.356;27.672;2023-04-28T08:36:52;98396.03;;;17.07;30.87
58373;BME280;44177;43.356;27.672;2023-04-28T08:39:18;98366.66;;;17.40;30.15
58373;BME280;44177;43.356;27.672;2023-04-28T08:41:44;98388.78;;;17.54;31.23
58373;BME280;44177;43.356;27.672;2023-04-28T08:44:11;98387.09;;;17.31;29.11
58373;BME280;44177;43.356;27.672;2023-04-28T08:46:40;98375.34;;;17.56;30.03
58373;BME280;44177;43.356;27.672;2023-04-28T08:49:14;98367.59;;;17.94;30.38
58373;BME280;44177;43.356;27.672;2023-04-28T08:51:54;98377.50;;;18.28;29.67
58373;BME280;44177;43.356;27.672;2023-04-28T08:54:22;98375.53;;;18.28;29.55
58373;BME280;44177;43.356;27.672;2023-04-28T08:56:48;98376.28;;;17.96;29.89
58373;BME280;44177;43.356;27.672;2023-04-28T08:59:15;98380.06;;;17.41;29.79
58373;BME280;44177;43.356;27.672;2023-04-28T09:01:42;98374.06;;;17.25;30.66
58373;BME280;44177;43.356;27.672;2023-04-28T09:04:08;98373.47;;;17.93;29.68
58373;BME280;44177;43.356;27.672;2023-04-28T09:06:36;98359.75;;;18.14;29.49
58373;BME280;44177;43.356;27.672;2023-04-28T09:09:38;98362.50;;;18.51;28.73
58373;BME280;44177;43.356;27.672;2023-04-28T09:12:05;98376.81;;;16.58;30.45
58373;BME280;44177;43.356;27.672;2023-04-28T09:14:33;98349.25;;;17.21;30.30
58373;BME280;44177;43.356;27.672;2023-04-28T09:17:00;98369.84;;;17.56;31.56
58373;BME280;44177;43.356;27.672;2023-04-28T09:19:35;98364.47;;;18.10;31.14
58373;BME280;44177;43.356;27.672;2023-04-28T09:22:02;98356.94;;;18.72;29.22
58373;BME280;44177;43.356;27.672;2023-04-28T09:26:54;98355.41;;;17.95;30.34
58373;BME280;44177;43.356;27.672;2023-04-28T09:29:19;98363.41;;;17.16;30.31
58373;BME280;44177;43.356;27.672;2023-04-28T09:31:45;98354.16;;;17.93;29.96
58373;BME280;44177;43.356;27.672;2023-04-28T09:34:10;98362.91;;;18.56;29.16
58373;BME280;44177;43.356;27.672;2023-04-28T09:36:36;98360.13;;;18.09;27.85
58373;BME280;44177;43.356;27.672;2023-04-28T09:39:02;98360.94;;;18.31;26.92
58373;BME280;44177;43.356;27.672;2023-04-28T09:41:41;98351.06;;;18.30;28.48
58373;BME280;44177;43.356;27.672;2023-04-28T09:44:15;98365.28;;;18.40;27.87
58373;BME280;44177;43.356;27.672;2023-04-28T09:46:45;98362.06;;;18.85;28.09
58373;BME280;44177;43.356;27.672;2023-04-28T09:49:11;98351.41;;;18.76;28.41
58373;BME280;44177;43.356;27.672;2023-04-28T09:51:37;98363.69;;;18.17;28.43
58373;BME280;44177;43.356;27.672;2023-04-28T09:54:03;98350.66;;;18.36;28.06
58373;BME280;44177;43.356;27.672;2023-04-28T09:56:31;98362.63;;;17.19;29.03
58373;BME280;44177;43.356;27.672;2023-04-28T09:58:57;98356.81;;;17.42;29.92
58373;BME280;44177;43.356;27.672;2023-04-28T10:01:27;98345.50;;;17.83;28.64
58373;BME280;44177;43.356;27.672;2023-04-28T10:03:56;98351.00;;;18.85;30.58
58373;BME280;44177;43.356;27.672;2023-04-28T10:06:24;98344.75;;;17.97;28.03
58373;BME280;44177;43.356;27.672;2023-04-28T10:08:50;98338.78;;;17.92;28.41
58373;BME280;44177;43.356;27.672;2023-04-28T10:11:16;98332.88;;;17.82;29.35
58373;BME280;44177;43.356;27.672;2023-04-28T10:13:42;98342.38;;;18.21;28.93
58373;BME280;44177;43.356;27.672;2023-04-28T10:16:09;98331.75;;;18.30;29.29
58373;BME280;44177;43.356;27.672;2023-04-28T10:18:36;98343.13;;;18.69;27.39
58373;BME280;44177;43.356;27.672;2023-04-28T10:21:02;98336.03;;;18.68;29.54
58373;BME280;44177;43.356;27.672;2023-04-28T10:26:16;98348.31;;;18.09;28.00
58373;BME280;44177;43.356;27.672;2023-04-28T10:31:13;98349.03;;;18.82;28.39
58373;BME280;44177;43.356;27.672;2023-04-28T10:33:40;98341.91;;;18.88;28.82
58373;BME280;44177;43.356;27.672;2023-04-28T10:36:06;98328.31;;;19.40;28.36
58373;BME280;44177;43.356;27.672;2023-04-28T10:38:32;98329.97;;;19.98;26.33
58373;BME280;44177;43.356;27.672;2023-04-28T10:40:58;98323.31;;;19.14;27.48
58373;BME280;44177;43.356;27.672;2023-04-28T10:56:19;98329.03;;;19.55;26.02
58373;BME280;44177;43.356;27.672;2023-04-28T11:14:38;98320.53;;;19.92;24.95
58373;BME280;44177;43.356;27.672;2023-04-28T11:17:09;98307.94;;;20.32;26.53
58373;BME280;44177;43.356;27.672;2023-04-28T11:19:42;98315.97;;;20.19;24.60
58373;BME280;44177;43.356;27.672;2023-04-28T11:22:16;98329.47;;;20.59;25.82
58373;BME280;44177;43.356;27.672;2023-04-28T11:24:57;98313.75;;;20.87;23.70
58373;BME280;44177;43.356;27.672;2023-04-28T11:27:23;98311.47;;;20.33;25.16
58373;BME280;44177;43.356;27.672;2023-04-28T11:29:49;98323.72;;;19.86;27.67
58373;BME280;44177;43.356;27.672;2023-04-28T11:32:15;98322.38;;;19.42;27.68
58373;BME280;44177;43.356;27.672;2023-04-28T11:34:40;98311.22;;;20.16;26.07
58373;BME280;44177;43.356;27.672;2023-04-28T11:37:06;98323.03;;;20.66;26.55
58373;BME280;44177;43.356;27.672;2023-04-28T11:39:33;98341.28;;;19.54;25.19
58373;BME280;44177;43.356;27.672;2023-04-28T11:42:00;98332.13;;;18.43;26.37
58373;BME280;44177;43.356;27.672;2023-04-28T11:44:28;98337.97;;;18.92;27.41
58373;BME280;44177;43.356;27.672;2023-04-28T11:46:55;98325.72;;;19.79;26.65
58373;BME280;44177;43.356;27.672;2023-04-28T11:49:22;98309.66;;;20.61;25.54
58373;BME280;44177;43.356;27.672;2023-04-28T11:51:52;98308.75;;;20.75;25.05
58373;BME280;44177;43.356;27.672;2023-04-28T11:54:24;98317.97;;;20.99;26.00
58373;BME280;44177;43.356;27.672;2023-04-28T11:56:50;98324.97;;;21.11;24.50
58373;BME280;44177;43.356;27.672;2023-04-28T11:59:17;98315.69;;;20.48;25.01
58373;BME280;44177;43.356;27.672;2023-04-28T12:01:47;98317.53;;;20.20;25.45
58373;BME280;44177;43.356;27.672;2023-04-28T12:04:13;98328.72;;;19.35;25.94
58373;BME280;44177;43.356;27.672;2023-04-28T12:06:42;98327.81;;;18.31;26.86
58373;BME280;44177;43.356;27.672;2023-04-28T12:09:15;98334.44;;;17.76;28.12
58373;BME280;44177;43.356;27.672;2023-04-28T12:11:54;98322.28;;;18.31;28.12
58373;BME280;44177;43.356;27.672;2023-04-28T12:14:20;98317.44;;;18.86;28.08
58373;BME280;44177;43.356;27.672;2023-04-28T12:16:45;98318.06;;;19.37;26.97
58373;BME280;44177;43.356;27.672;2023-04-28T12:19:12;98307.66;;;18.56;27.28
58373;BME280;44177;43.356;27.672;2023-04-28T12:21:39;98313.19;;;18.20;28.32
58373;BME280;44177;43.356;27.672;2023-04-28T12:24:15;98310.81;;;17.86;28.39
58373;BME280;44177;43.356;27.672;2023-04-28T12:26:41;98315.19;;;18.09;29.25
58373;BME280;44177;43.356;27.672;2023-04-28T12:29:07;98311.56;;;18.73;28.21
58373;BME280;44177;43.356;27.672;2023-04-28T12:31:50;98311.47;;;19.13;26.96
58373;BME280;44177;43.356;27.672;2023-04-28T12:34:18;98304.34;;;19.12;27.03
58373;BME280;44177;43.356;27.672;2023-04-28T12:36:44;98297.78;;;17.76;26.52
58373;BME280;44177;43.356;27.672;2023-04-28T12:39:14;98313.38;;;17.10;29.38
58373;BME280;44177;43.356;27.672;2023-04-28T12:41:41;98314.25;;;16.62;30.64
58373;BME280;44177;43.356;27.672;2023-04-28T12:44:06;98303.56;;;15.94;30.28
58373;BME280;44177;43.356;27.672;2023-04-28T12:46:32;98309.03;;;17.09;29.43
58373;BME280;44177;43.356;27.672;2023-04-28T12:48:57;98299.31;;;17.48;28.27
58373;BME280;44177;43.356;27.672;2023-04-28T12:51:23;98288.69;;;17.57;28.45
58373;BME280;44177;43.356;27.672;2023-04-28T12:53:48;98296.59;;;17.80;28.15
58373;BME280;44177;43.356;27.672;2023-04-28T12:56:14;98293.09;;;18.34;27.12
58373;BME280;44177;43.356;27.672;2023-04-28T12:58:39;98288.22;;;18.85;28.69
58373;BME280;44177;43.356;27.672;2023-04-28T13:01:05;98289.03;;;18.93;27.13
58373;BME280;44177;43.356;27.672;2023-04-28T13:03:31;98311.59;;;18.55;28.32
58373;BME280;44177;43.356;27.672;2023-04-28T13:05:56;98291.09;;;17.80;28.83
58373;BME280;44177;43.356;27.672;2023-04-28T13:08:22;98311.19;;;17.74;29.42
58373;BME280;44177;43.356;27.672;2023-04-28T13:10:48;98312.25;;;17.22;29.62
58373;BME280;44177;43.356;27.672;2023-04-28T13:13:15;98315.94;;;16.81;29.60
58373;BME280;44177;43.356;27.672;2023-04-28T13:15:40;98297.38;;;17.74;28.92
58373;BME280;44177;43.356;27.672;2023-04-28T13:18:06;98291.88;;;18.39;28.57
58373;BME280;44177;43.356;27.672;2023-04-28T13:20:31;98289.47;;;18.70;28.69
58373;BME280;44177;43.356;27.672;2023-04-28T13:22:57;98291.09;;;17.80;29.14
58373;BME280;44177;43.356;27.672;2023-04-28T13:25:22;98286.19;;;17.09;29.93
58373;BME280;44177;43.356;27.672;2023-04-28T13:27:47;98299.34;;;16.07;30.33